Flugplatz Hohn AB (ETNH)

Hier findest Du alle Informationen zum Flugplatz Hohn AB (ETNH).

Informationen für Piloten zum Flugplatz Hohn AB

Hier findest Du alle relevanten Informationen, die Du als Pilot benötigst, um Hohn AB anzufliegen.

Flugplatz: Hohn AB ICAO-Code: ETNH
Frequenz Turm: 122,100 Mhz GAFOR Gebiet: 3
Frequenz Ground: 122,100 Mhz Mogas: nein
Platzrunde: - Landegebühr: -
Platzhöhe: - Sunrise: 07:08 Uhr UTC
Pisten: 08/26 - 2.440 m x , BIT Sunset: 15:09 Uhr UTC

Flugwetter am Flugplatz Hohn AB

Die METAR Information stammen aus EDHK (39.89 km entfernt).

METAR Code:
2022/09/30 16:20
EDHK 301620Z AUTO 21005KT 170V230 9999 // SCT038/// SCT057/// 13/07 Q1007

Temperatur: 7,6 °C Niederschlag: - Wind: 6,0 kt
Temperatur (min.): 6,8 °C Luftdruck: 1026 hPa Windrichtung: 200 °
Temperatur (max.): 8,3 °C Luftfeuchtigkeit: 97 % Bewölkung: 1/8

Flugschulen am Flugplatz Hohn AB

Am Flugplatz Hohn AB gibt es leider keine Flugschule.

Benachbarte Flugplätze und Flugschulen

Es gibt 10 weitere Flugplätze in einem Umkreis von 50 km um den Flugplatz Hohn AB.

Jetzt anmelden

Passwort vergessen

Umfrage Archiv

Sendet Ihr ADS-B und/oder FLARM?

Ja
84.5 %
Nein
15.5 %
Stimmen: 252 | Diskussion
Anzeige: Roland Aircraft
Statistik Alle Mitglieder

Aktuell sind 48 Besucher online, davon 4 Mitglieder und 44 Gäste.


Mitglieder online:
r1  Tarutino  Elman  monstertyp 

Anzeige: ULPower Aero Engines Anzeige: EasyVFR